sensor_id;sensor_type;location;lat;lon;timestamp;pressure;altitude;pressure_sealevel;temperature;humidity
9774;BME280;4926;42.670;23.316;2023-03-23T00:01:12;94510.75;;;8.80;100.00
9774;BME280;4926;42.670;23.316;2023-03-23T00:03:41;94504.66;;;8.79;100.00
9774;BME280;4926;42.670;23.316;2023-03-23T00:06:08;94503.88;;;8.79;100.00
9774;BME280;4926;42.670;23.316;2023-03-23T00:08:37;94506.81;;;8.77;100.00
9774;BME280;4926;42.670;23.316;2023-03-23T00:11:11;94509.25;;;8.69;100.00
9774;BME280;4926;42.670;23.316;2023-03-23T00:13:40;94503.47;;;8.62;100.00
9774;BME280;4926;42.670;23.316;2023-03-23T00:16:24;94500.53;;;8.63;100.00
9774;BME280;4926;42.670;23.316;2023-03-23T00:18:56;94508.75;;;8.62;100.00
9774;BME280;4926;42.670;23.316;2023-03-23T00:21:25;94513.00;;;8.63;100.00
9774;BME280;4926;42.670;23.316;2023-03-23T00:23:59;94511.06;;;8.73;100.00
9774;BME280;4926;42.670;23.316;2023-03-23T00:26:35;94518.47;;;8.76;100.00
9774;BME280;4926;42.670;23.316;2023-03-23T00:29:06;94512.97;;;8.68;100.00
9774;BME280;4926;42.670;23.316;2023-03-23T00:31:33;94515.72;;;8.53;100.00
9774;BME280;4926;42.670;23.316;2023-03-23T00:34:16;94507.38;;;8.16;100.00
9774;BME280;4926;42.670;23.316;2023-03-23T00:36:45;94531.94;;;7.72;100.00
9774;BME280;4926;42.670;23.316;2023-03-23T00:39:12;94529.88;;;7.44;100.00
9774;BME280;4926;42.670;23.316;2023-03-23T00:41:42;94527.78;;;7.46;100.00
9774;BME280;4926;42.670;23.316;2023-03-23T00:44:09;94534.91;;;7.41;100.00
9774;BME280;4926;42.670;23.316;2023-03-23T00:46:41;94533.06;;;7.26;100.00
9774;BME280;4926;42.670;23.316;2023-03-23T00:49:11;94538.38;;;7.11;100.00
9774;BME280;4926;42.670;23.316;2023-03-23T00:51:43;94535.75;;;7.01;100.00
9774;BME280;4926;42.670;23.316;2023-03-23T00:54:10;94537.84;;;6.74;100.00
9774;BME280;4926;42.670;23.316;2023-03-23T00:56:38;94539.41;;;6.50;100.00
9774;BME280;4926;42.670;23.316;2023-03-23T00:59:06;94536.13;;;6.23;100.00
9774;BME280;4926;42.670;23.316;2023-03-23T01:01:36;94539.25;;;6.00;100.00
9774;BME280;4926;42.670;23.316;2023-03-23T01:04:06;94534.72;;;5.95;100.00
9774;BME280;4926;42.670;23.316;2023-03-23T01:06:36;94548.19;;;5.94;100.00
9774;BME280;4926;42.670;23.316;2023-03-23T01:09:04;94541.88;;;5.95;100.00
9774;BME280;4926;42.670;23.316;2023-03-23T01:11:31;94549.00;;;5.94;100.00
9774;BME280;4926;42.670;23.316;2023-03-23T01:13:58;94520.69;;;5.90;100.00
9774;BME280;4926;42.670;23.316;2023-03-23T01:16:27;94538.19;;;6.06;100.00
9774;BME280;4926;42.670;23.316;2023-03-23T01:18:59;94548.78;;;6.11;100.00
9774;BME280;4926;42.670;23.316;2023-03-23T01:21:26;94539.31;;;6.20;100.00
9774;BME280;4926;42.670;23.316;2023-03-23T01:23:52;94543.28;;;6.22;100.00
9774;BME280;4926;42.670;23.316;2023-03-23T01:26:21;94531.63;;;6.08;100.00
9774;BME280;4926;42.670;23.316;2023-03-23T01:28:48;94537.16;;;6.07;100.00
9774;BME280;4926;42.670;23.316;2023-03-23T01:31:17;94523.44;;;6.10;100.00
9774;BME280;4926;42.670;23.316;2023-03-23T01:33:48;94531.91;;;6.12;100.00
9774;BME280;4926;42.670;23.316;2023-03-23T01:36:19;94530.56;;;6.14;100.00
9774;BME280;4926;42.670;23.316;2023-03-23T01:38:48;94529.56;;;6.25;100.00
9774;BME280;4926;42.670;23.316;2023-03-23T01:41:16;94517.63;;;6.23;100.00
9774;BME280;4926;42.670;23.316;2023-03-23T01:43:55;94507.66;;;6.35;100.00
9774;BME280;4926;42.670;23.316;2023-03-23T01:46:23;94524.28;;;6.35;100.00
9774;BME280;4926;42.670;23.316;2023-03-23T01:48:51;94514.50;;;6.41;100.00
9774;BME280;4926;42.670;23.316;2023-03-23T01:51:21;94515.06;;;6.48;100.00
9774;BME280;4926;42.670;23.316;2023-03-23T01:53:50;94510.84;;;6.57;100.00
9774;BME280;4926;42.670;23.316;2023-03-23T01:56:29;94513.22;;;6.63;100.00
9774;BME280;4926;42.670;23.316;2023-03-23T01:58:59;94513.50;;;6.67;100.00
9774;BME280;4926;42.670;23.316;2023-03-23T02:01:26;94503.44;;;6.69;100.00
9774;BME280;4926;42.670;23.316;2023-03-23T02:03:56;94488.91;;;6.66;100.00
9774;BME280;4926;42.670;23.316;2023-03-23T02:06:23;94514.56;;;6.91;100.00
9774;BME280;4926;42.670;23.316;2023-03-23T02:08:51;94486.53;;;6.85;100.00
9774;BME280;4926;42.670;23.316;2023-03-23T02:11:20;94507.69;;;7.20;100.00
9774;BME280;4926;42.670;23.316;2023-03-23T02:13:49;94517.19;;;7.26;100.00
9774;BME280;4926;42.670;23.316;2023-03-23T02:16:23;94512.94;;;7.50;100.00
9774;BME280;4926;42.670;23.316;2023-03-23T02:19:11;94507.09;;;7.53;100.00
9774;BME280;4926;42.670;23.316;2023-03-23T02:25:04;94519.81;;;7.51;100.00
9774;BME280;4926;42.670;23.316;2023-03-23T02:28:06;94515.28;;;7.62;100.00
9774;BME280;4926;42.670;23.316;2023-03-23T02:31:00;94510.75;;;7.67;100.00
9774;BME280;4926;42.670;23.316;2023-03-23T02:33:46;94504.91;;;7.75;100.00
9774;BME280;4926;42.670;23.316;2023-03-23T02:36:22;94510.16;;;7.85;100.00
9774;BME280;4926;42.670;23.316;2023-03-23T02:38:57;94516.22;;;7.96;100.00
9774;BME280;4926;42.670;23.316;2023-03-23T02:41:30;94520.69;;;8.06;100.00
9774;BME280;4926;42.670;23.316;2023-03-23T02:44:01;94514.56;;;8.15;100.00
9774;BME280;4926;42.670;23.316;2023-03-23T02:46:33;94504.72;;;8.26;100.00
9774;BME280;4926;42.670;23.316;2023-03-23T02:49:03;94520.88;;;8.29;100.00
9774;BME280;4926;42.670;23.316;2023-03-23T02:51:34;94513.44;;;8.31;100.00
9774;BME280;4926;42.670;23.316;2023-03-23T02:54:01;94521.69;;;8.20;100.00
9774;BME280;4926;42.670;23.316;2023-03-23T02:56:29;94530.72;;;8.19;100.00
9774;BME280;4926;42.670;23.316;2023-03-23T02:58:58;94532.88;;;8.07;100.00
9774;BME280;4926;42.670;23.316;2023-03-23T03:04:31;94535.13;;;7.69;100.00
9774;BME280;4926;42.670;23.316;2023-03-23T03:07:27;94540.47;;;7.44;100.00
9774;BME280;4926;42.670;23.316;2023-03-23T03:09:59;94553.22;;;7.17;100.00
9774;BME280;4926;42.670;23.316;2023-03-23T03:12:35;94551.09;;;7.09;100.00
9774;BME280;4926;42.670;23.316;2023-03-23T03:15:15;94555.84;;;6.97;100.00
9774;BME280;4926;42.670;23.316;2023-03-23T03:17:52;94555.31;;;6.90;100.00
9774;BME280;4926;42.670;23.316;2023-03-23T03:20:26;94555.81;;;6.67;100.00
9774;BME280;4926;42.670;23.316;2023-03-23T03:22:57;94568.00;;;6.63;100.00
9774;BME280;4926;42.670;23.316;2023-03-23T03:25:29;94556.88;;;6.71;100.00
9774;BME280;4926;42.670;23.316;2023-03-23T03:27:59;94562.44;;;6.69;100.00
9774;BME280;4926;42.670;23.316;2023-03-23T03:30:31;94560.00;;;6.53;100.00
9774;BME280;4926;42.670;23.316;2023-03-23T03:33:00;94563.84;;;6.05;100.00
9774;BME280;4926;42.670;23.316;2023-03-23T03:35:30;94559.69;;;5.72;100.00
9774;BME280;4926;42.670;23.316;2023-03-23T03:38:04;94570.75;;;5.69;100.00
9774;BME280;4926;42.670;23.316;2023-03-23T03:40:35;94574.53;;;5.79;100.00
9774;BME280;4926;42.670;23.316;2023-03-23T03:43:05;94572.25;;;5.97;100.00
9774;BME280;4926;42.670;23.316;2023-03-23T03:45:32;94575.72;;;6.08;100.00
9774;BME280;4926;42.670;23.316;2023-03-23T03:48:05;94560.47;;;6.25;100.00
9774;BME280;4926;42.670;23.316;2023-03-23T03:50:33;94573.78;;;6.50;100.00
9774;BME280;4926;42.670;23.316;2023-03-23T03:52:59;94565.34;;;6.63;100.00
9774;BME280;4926;42.670;23.316;2023-03-23T03:55:26;94560.06;;;6.63;100.00
9774;BME280;4926;42.670;23.316;2023-03-23T03:58:08;94547.34;;;6.55;100.00
9774;BME280;4926;42.670;23.316;2023-03-23T04:00:35;94558.47;;;6.72;100.00
9774;BME280;4926;42.670;23.316;2023-03-23T04:03:01;94562.16;;;6.61;100.00
9774;BME280;4926;42.670;23.316;2023-03-23T04:05:28;94555.78;;;6.42;100.00
9774;BME280;4926;42.670;23.316;2023-03-23T04:07:59;94554.97;;;6.41;100.00
9774;BME280;4926;42.670;23.316;2023-03-23T04:10:28;94548.13;;;6.45;100.00
9774;BME280;4926;42.670;23.316;2023-03-23T04:12:55;94555.53;;;6.53;100.00
9774;BME280;4926;42.670;23.316;2023-03-23T04:15:23;94546.81;;;6.58;100.00
9774;BME280;4926;42.670;23.316;2023-03-23T04:17:52;94549.22;;;6.79;100.00
9774;BME280;4926;42.670;23.316;2023-03-23T04:20:19;94552.66;;;6.85;100.00
9774;BME280;4926;42.670;23.316;2023-03-23T04:22:47;94559.81;;;6.90;100.00
9774;BME280;4926;42.670;23.316;2023-03-23T04:25:18;94560.88;;;6.94;100.00
9774;BME280;4926;42.670;23.316;2023-03-23T04:27:46;94551.09;;;6.94;100.00
9774;BME280;4926;42.670;23.316;2023-03-23T04:30:18;94556.38;;;6.99;100.00
9774;BME280;4926;42.670;23.316;2023-03-23T04:32:46;94564.59;;;7.03;100.00
9774;BME280;4926;42.670;23.316;2023-03-23T04:35:16;94567.25;;;7.08;100.00
9774;BME280;4926;42.670;23.316;2023-03-23T04:37:44;94563.00;;;7.12;100.00
9774;BME280;4926;42.670;23.316;2023-03-23T04:40:16;94560.38;;;7.17;100.00
9774;BME280;4926;42.670;23.316;2023-03-23T04:42:44;94564.59;;;7.23;100.00
9774;BME280;4926;42.670;23.316;2023-03-23T04:45:13;94569.09;;;7.32;100.00
9774;BME280;4926;42.670;23.316;2023-03-23T04:47:41;94572.28;;;7.34;100.00
9774;BME280;4926;42.670;23.316;2023-03-23T04:50:19;94568.00;;;7.38;100.00
9774;BME280;4926;42.670;23.316;2023-03-23T04:52:47;94567.22;;;7.28;100.00
9774;BME280;4926;42.670;23.316;2023-03-23T04:55:15;94579.16;;;7.35;100.00
9774;BME280;4926;42.670;23.316;2023-03-23T04:57:42;94577.03;;;7.12;100.00
9774;BME280;4926;42.670;23.316;2023-03-23T05:00:11;94578.63;;;7.13;100.00
9774;BME280;4926;42.670;23.316;2023-03-23T05:02:47;94581.25;;;7.28;100.00
9774;BME280;4926;42.670;23.316;2023-03-23T05:05:17;94577.56;;;7.34;100.00
9774;BME280;4926;42.670;23.316;2023-03-23T05:07:44;94581.25;;;7.33;100.00
9774;BME280;4926;42.670;23.316;2023-03-23T05:10:13;94577.56;;;7.39;100.00
9774;BME280;4926;42.670;23.316;2023-03-23T05:12:45;94568.28;;;7.22;100.00
9774;BME280;4926;42.670;23.316;2023-03-23T05:15:14;94598.75;;;7.44;100.00
9774;BME280;4926;42.670;23.316;2023-03-23T05:17:41;94594.50;;;7.28;100.00
9774;BME280;4926;42.670;23.316;2023-03-23T05:20:11;94590.25;;;7.37;100.00
9774;BME280;4926;42.670;23.316;2023-03-23T05:22:40;94591.84;;;7.48;100.00
9774;BME280;4926;42.670;23.316;2023-03-23T05:25:08;94592.38;;;7.60;100.00
9774;BME280;4926;42.670;23.316;2023-03-23T05:27:35;94592.88;;;7.67;100.00
9774;BME280;4926;42.670;23.316;2023-03-23T05:30:05;94596.06;;;7.74;100.00
9774;BME280;4926;42.670;23.316;2023-03-23T05:32:34;94611.66;;;7.86;100.00
9774;BME280;4926;42.670;23.316;2023-03-23T05:35:08;94602.16;;;7.60;100.00
9774;BME280;4926;42.670;23.316;2023-03-23T05:37:34;94612.78;;;7.50;100.00
9774;BME280;4926;42.670;23.316;2023-03-23T05:40:05;94616.19;;;7.65;100.00
9774;BME280;4926;42.670;23.316;2023-03-23T05:42:33;94633.69;;;7.81;100.00
9774;BME280;4926;42.670;23.316;2023-03-23T05:45:05;94615.13;;;7.86;100.00
9774;BME280;4926;42.670;23.316;2023-03-23T05:47:33;94621.97;;;7.92;100.00
9774;BME280;4926;42.670;23.316;2023-03-23T05:50:00;94616.94;;;8.01;100.00
9774;BME280;4926;42.670;23.316;2023-03-23T05:52:30;94617.72;;;7.97;100.00
9774;BME280;4926;42.670;23.316;2023-03-23T05:54:58;94627.28;;;7.98;100.00
9774;BME280;4926;42.670;23.316;2023-03-23T05:57:24;94621.16;;;8.07;100.00
9774;BME280;4926;42.670;23.316;2023-03-23T05:59:52;94610.00;;;8.15;100.00
9774;BME280;4926;42.670;23.316;2023-03-23T06:02:23;94623.47;;;8.39;100.00
9774;BME280;4926;42.670;23.316;2023-03-23T06:04:50;94632.47;;;8.48;100.00
9774;BME280;4926;42.670;23.316;2023-03-23T06:07:22;94632.75;;;8.46;100.00
9774;BME280;4926;42.670;23.316;2023-03-23T06:09:49;94634.56;;;8.51;100.00
9774;BME280;4926;42.670;23.316;2023-03-23T06:12:16;94629.50;;;8.54;100.00
9774;BME280;4926;42.670;23.316;2023-03-23T06:14:45;94638.22;;;8.65;100.00
9774;BME280;4926;42.670;23.316;2023-03-23T06:17:12;94632.09;;;8.74;100.00
9774;BME280;4926;42.670;23.316;2023-03-23T06:19:41;94632.84;;;8.85;100.00
9774;BME280;4926;42.670;23.316;2023-03-23T06:22:10;94632.72;;;9.00;100.00
9774;BME280;4926;42.670;23.316;2023-03-23T06:24:37;94630.13;;;8.95;100.00
9774;BME280;4926;42.670;23.316;2023-03-23T06:27:03;94639.19;;;8.84;100.00
9774;BME280;4926;42.670;23.316;2023-03-23T06:29:30;94632.28;;;8.88;100.00
9774;BME280;4926;42.670;23.316;2023-03-23T06:32:00;94626.69;;;8.89;100.00
9774;BME280;4926;42.670;23.316;2023-03-23T06:34:28;94636.97;;;9.06;100.00
9774;BME280;4926;42.670;23.316;2023-03-23T06:36:57;94638.72;;;9.21;100.00
9774;BME280;4926;42.670;23.316;2023-03-23T06:39:27;94622.81;;;9.16;100.00
9774;BME280;4926;42.670;23.316;2023-03-23T06:41:53;94625.09;;;9.32;100.00
9774;BME280;4926;42.670;23.316;2023-03-23T06:44:24;94611.13;;;9.50;100.00
9774;BME280;4926;42.670;23.316;2023-03-23T06:46:51;94642.84;;;10.04;100.00
9774;BME280;4926;42.670;23.316;2023-03-23T06:49:17;94637.25;;;10.29;100.00
9774;BME280;4926;42.670;23.316;2023-03-23T06:51:44;94642.53;;;10.58;100.00
9774;BME280;4926;42.670;23.316;2023-03-23T06:54:16;94656.09;;;10.80;100.00
9774;BME280;4926;42.670;23.316;2023-03-23T06:56:42;94642.94;;;10.88;100.00
9774;BME280;4926;42.670;23.316;2023-03-23T06:59:09;94651.59;;;10.99;100.00
9774;BME280;4926;42.670;23.316;2023-03-23T07:01:36;94647.16;;;11.32;100.00
9774;BME280;4926;42.670;23.316;2023-03-23T07:04:06;94650.31;;;11.71;99.10
9774;BME280;4926;42.670;23.316;2023-03-23T07:06:36;94649.88;;;11.64;97.00
9774;BME280;4926;42.670;23.316;2023-03-23T07:09:03;94664.72;;;11.51;99.61
9774;BME280;4926;42.670;23.316;2023-03-23T07:11:31;94650.81;;;11.54;100.00
9774;BME280;4926;42.670;23.316;2023-03-23T07:14:01;94655.66;;;11.34;100.00
9774;BME280;4926;42.670;23.316;2023-03-23T07:16:28;94658.97;;;11.07;100.00
9774;BME280;4926;42.670;23.316;2023-03-23T07:18:59;94655.13;;;10.52;100.00
9774;BME280;4926;42.670;23.316;2023-03-23T07:21:26;94647.84;;;10.81;100.00
9774;BME280;4926;42.670;23.316;2023-03-23T07:23:53;94653.69;;;11.39;100.00
9774;BME280;4926;42.670;23.316;2023-03-23T07:26:20;94648.59;;;11.93;100.00
9774;BME280;4926;42.670;23.316;2023-03-23T07:28:49;94646.94;;;12.43;98.79
9774;BME280;4926;42.670;23.316;2023-03-23T07:31:15;94655.94;;;12.88;95.01
9774;BME280;4926;42.670;23.316;2023-03-23T07:33:42;94653.84;;;12.44;92.74
9774;BME280;4926;42.670;23.316;2023-03-23T07:36:25;94665.03;;;12.60;95.77
9774;BME280;4926;42.670;23.316;2023-03-23T07:38:52;94645.94;;;13.07;92.26
9774;BME280;4926;42.670;23.316;2023-03-23T07:41:20;94652.03;;;13.34;88.92
9774;BME280;4926;42.670;23.316;2023-03-23T07:43:48;94652.22;;;13.96;86.18
9774;BME280;4926;42.670;23.316;2023-03-23T07:46:15;94647.13;;;14.38;81.39
9774;BME280;4926;42.670;23.316;2023-03-23T07:48:42;94639.41;;;14.76;79.25
9774;BME280;4926;42.670;23.316;2023-03-23T07:51:08;94645.78;;;14.97;76.37
9774;BME280;4926;42.670;23.316;2023-03-23T07:53:35;94640.25;;;14.94;75.74
9774;BME280;4926;42.670;23.316;2023-03-23T07:56:03;94632.66;;;14.96;73.66
9774;BME280;4926;42.670;23.316;2023-03-23T07:58:29;94643.09;;;14.89;74.34
9774;BME280;4926;42.670;23.316;2023-03-23T08:00:58;94635.47;;;15.47;72.07
9774;BME280;4926;42.670;23.316;2023-03-23T08:03:24;94626.97;;;15.79;69.93
9774;BME280;4926;42.670;23.316;2023-03-23T08:05:54;94629.91;;;16.12;67.75
9774;BME280;4926;42.670;23.316;2023-03-23T08:08:24;94623.94;;;15.89;66.40
9774;BME280;4926;42.670;23.316;2023-03-23T08:10:51;94640.72;;;15.69;66.60
9774;BME280;4926;42.670;23.316;2023-03-23T08:13:18;94637.84;;;15.74;66.30
9774;BME280;4926;42.670;23.316;2023-03-23T08:15:45;94621.72;;;15.91;64.31
9774;BME280;4926;42.670;23.316;2023-03-23T08:18:13;94626.31;;;15.91;63.48
9774;BME280;4926;42.670;23.316;2023-03-23T08:20:39;94624.44;;;15.83;64.12
9774;BME280;4926;42.670;23.316;2023-03-23T08:23:07;94624.22;;;16.05;63.61
9774;BME280;4926;42.670;23.316;2023-03-23T08:25:34;94623.69;;;16.37;62.14
9774;BME280;4926;42.670;23.316;2023-03-23T08:28:01;94623.09;;;16.23;62.26
9774;BME280;4926;42.670;23.316;2023-03-23T08:30:29;94617.44;;;16.07;62.34
9774;BME280;4926;42.670;23.316;2023-03-23T08:32:59;94622.69;;;15.95;63.59
9774;BME280;4926;42.670;23.316;2023-03-23T08:35:29;94614.50;;;16.38;61.20
9774;BME280;4926;42.670;23.316;2023-03-23T08:37:58;94608.50;;;16.49;59.76
9774;BME280;4926;42.670;23.316;2023-03-23T08:40:28;94606.31;;;16.34;61.39
9774;BME280;4926;42.670;23.316;2023-03-23T08:43:07;94606.88;;;16.95;60.16
9774;BME280;4926;42.670;23.316;2023-03-23T08:45:34;94591.16;;;17.05;56.53
9774;BME280;4926;42.670;23.316;2023-03-23T08:48:04;94587.69;;;16.29;53.08
9774;BME280;4926;42.670;23.316;2023-03-23T08:50:35;94562.50;;;16.42;51.32
9774;BME280;4926;42.670;23.316;2023-03-23T08:53:07;94560.97;;;17.00;51.44
9774;BME280;4926;42.670;23.316;2023-03-23T08:55:34;94546.69;;;17.49;49.78
9774;BME280;4926;42.670;23.316;2023-03-23T08:58:03;94538.59;;;17.69;48.93
9774;BME280;4926;42.670;23.316;2023-03-23T09:00:33;94544.47;;;16.05;50.49
9774;BME280;4926;42.670;23.316;2023-03-23T09:02:59;94570.56;;;15.88;52.02
9774;BME280;4926;42.670;23.316;2023-03-23T09:05:33;94556.19;;;16.38;50.37
9774;BME280;4926;42.670;23.316;2023-03-23T09:08:01;94571.88;;;16.74;50.75
9774;BME280;4926;42.670;23.316;2023-03-23T09:10:29;94562.66;;;16.46;50.54
9774;BME280;4926;42.670;23.316;2023-03-23T09:12:57;94564.16;;;15.46;52.51
9774;BME280;4926;42.670;23.316;2023-03-23T09:15:24;94587.53;;;14.33;54.96
9774;BME280;4926;42.670;23.316;2023-03-23T09:17:52;94590.38;;;14.36;56.08
9774;BME280;4926;42.670;23.316;2023-03-23T09:20:22;94580.56;;;14.63;54.41
9774;BME280;4926;42.670;23.316;2023-03-23T09:22:51;94590.13;;;14.46;55.05
9774;BME280;4926;42.670;23.316;2023-03-23T09:25:21;94589.44;;;14.32;56.35
9774;BME280;4926;42.670;23.316;2023-03-23T09:27:49;94581.91;;;14.12;56.73
9774;BME280;4926;42.670;23.316;2023-03-23T09:30:19;94598.13;;;14.38;57.34
9774;BME280;4926;42.670;23.316;2023-03-23T09:32:47;94590.25;;;14.41;56.99
9774;BME280;4926;42.670;23.316;2023-03-23T09:35:15;94602.59;;;14.51;57.34
9774;BME280;4926;42.670;23.316;2023-03-23T09:37:42;94584.94;;;14.19;57.57
9774;BME280;4926;42.670;23.316;2023-03-23T09:40:14;94579.09;;;14.39;57.32
9774;BME280;4926;42.670;23.316;2023-03-23T09:43:13;94583.19;;;15.02;55.74
9774;BME280;4926;42.670;23.316;2023-03-23T09:45:49;94570.28;;;15.63;54.23
9774;BME280;4926;42.670;23.316;2023-03-23T09:48:28;94566.31;;;15.87;53.55
9774;BME280;4926;42.670;23.316;2023-03-23T09:51:01;94564.75;;;15.17;53.72
9774;BME280;4926;42.670;23.316;2023-03-23T09:53:34;94568.22;;;15.78;54.79
9774;BME280;4926;42.670;23.316;2023-03-23T09:56:09;94563.78;;;15.90;53.33
9774;BME280;4926;42.670;23.316;2023-03-23T09:58:46;94545.75;;;16.45;51.51
9774;BME280;4926;42.670;23.316;2023-03-23T10:01:17;94558.03;;;16.63;52.37
9774;BME280;4926;42.670;23.316;2023-03-23T10:03:48;94544.03;;;17.20;50.81
9774;BME280;4926;42.670;23.316;2023-03-23T10:06:18;94530.47;;;17.90;48.68
9774;BME280;4926;42.670;23.316;2023-03-23T10:08:47;94522.25;;;17.13;47.66
9774;BME280;4926;42.670;23.316;2023-03-23T10:11:22;94530.25;;;16.42;49.23
9774;BME280;4926;42.670;23.316;2023-03-23T10:16:48;94521.19;;;18.00;47.84
9774;BME280;4926;42.670;23.316;2023-03-23T10:19:26;94503.75;;;18.42;46.74
9774;BME280;4926;42.670;23.316;2023-03-23T10:21:59;94495.94;;;18.28;46.69
9774;BME280;4926;42.670;23.316;2023-03-23T10:24:31;94503.56;;;16.96;47.67
9774;BME280;4926;42.670;23.316;2023-03-23T10:27:17;94502.13;;;17.19;48.69
9774;BME280;4926;42.670;23.316;2023-03-23T10:29:49;94510.25;;;17.84;48.18
9774;BME280;4926;42.670;23.316;2023-03-23T10:32:20;94509.84;;;17.94;47.33
9774;BME280;4926;42.670;23.316;2023-03-23T10:34:55;94506.66;;;17.80;47.25
9774;BME280;4926;42.670;23.316;2023-03-23T10:37:25;94498.59;;;17.92;46.72
9774;BME280;4926;42.670;23.316;2023-03-23T10:39:54;94501.75;;;17.94;47.47
9774;BME280;4926;42.670;23.316;2023-03-23T10:42:28;94501.41;;;17.51;47.17
9774;BME280;4926;42.670;23.316;2023-03-23T10:44:56;94493.06;;;18.69;45.71
9774;BME280;4926;42.670;23.316;2023-03-23T10:47:24;94489.25;;;18.70;45.43
9774;BME280;4926;42.670;23.316;2023-03-23T10:49:56;94468.94;;;19.95;43.67
9774;BME280;4926;42.670;23.316;2023-03-23T10:52:30;94448.81;;;20.55;41.59
9774;BME280;4926;42.670;23.316;2023-03-23T10:55:03;94455.34;;;19.49;42.91
9774;BME280;4926;42.670;23.316;2023-03-23T10:57:35;94465.75;;;18.71;44.76
9774;BME280;4926;42.670;23.316;2023-03-23T11:00:07;94480.91;;;17.38;46.69
9774;BME280;4926;42.670;23.316;2023-03-23T11:02:40;94489.88;;;17.62;46.08
9774;BME280;4926;42.670;23.316;2023-03-23T11:05:17;94483.19;;;17.68;45.84
9774;BME280;4926;42.670;23.316;2023-03-23T11:07:50;94481.78;;;18.07;46.03
9774;BME280;4926;42.670;23.316;2023-03-23T11:10:22;94468.50;;;18.47;44.13
9774;BME280;4926;42.670;23.316;2023-03-23T11:12:56;94466.38;;;18.40;44.91
9774;BME280;4926;42.670;23.316;2023-03-23T11:15:35;94447.44;;;19.16;44.58
9774;BME280;4926;42.670;23.316;2023-03-23T11:18:05;94446.16;;;20.12;42.84
9774;BME280;4926;42.670;23.316;2023-03-23T11:20:36;94429.91;;;20.40;41.95
9774;BME280;4926;42.670;23.316;2023-03-23T11:23:14;94427.94;;;19.78;41.86
9774;BME280;4926;42.670;23.316;2023-03-23T11:25:55;94441.88;;;19.37;42.30
9774;BME280;4926;42.670;23.316;2023-03-23T11:28:27;94445.50;;;19.56;42.98
9774;BME280;4926;42.670;23.316;2023-03-23T11:30:57;94429.59;;;20.14;42.65
9774;BME280;4926;42.670;23.316;2023-03-23T11:33:27;94425.09;;;19.43;41.63
9774;BME280;4926;42.670;23.316;2023-03-23T11:35:55;94431.03;;;18.21;44.02
9774;BME280;4926;42.670;23.316;2023-03-23T11:38:25;94428.69;;;18.68;43.44
9774;BME280;4926;42.670;23.316;2023-03-23T11:40:53;94429.25;;;17.77;44.12
9774;BME280;4926;42.670;23.316;2023-03-23T11:43:25;94432.53;;;18.43;44.52
9774;BME280;4926;42.670;23.316;2023-03-23T11:46:02;94414.94;;;19.13;43.41
9774;BME280;4926;42.670;23.316;2023-03-23T11:48:38;94422.09;;;20.07;42.16
9774;BME280;4926;42.670;23.316;2023-03-23T11:51:11;94408.09;;;20.17;41.42
9774;BME280;4926;42.670;23.316;2023-03-23T11:53:45;94399.84;;;20.60;41.20
9774;BME280;4926;42.670;23.316;2023-03-23T11:56:21;94392.66;;;20.68;40.87
9774;BME280;4926;42.670;23.316;2023-03-23T11:58:53;94404.25;;;19.44;41.51
9774;BME280;4926;42.670;23.316;2023-03-23T12:01:28;94405.84;;;19.45;42.37
9774;BME280;4926;42.670;23.316;2023-03-23T12:07:23;94404.72;;;20.20;41.86
9774;BME280;4926;42.670;23.316;2023-03-23T12:09:59;94390.75;;;20.87;41.29
9774;BME280;4926;42.670;23.316;2023-03-23T12:12:36;94371.53;;;21.50;39.86
9774;BME280;4926;42.670;23.316;2023-03-23T12:15:17;94365.44;;;22.24;38.45
9774;BME280;4926;42.670;23.316;2023-03-23T12:17:52;94354.69;;;22.83;37.80
9774;BME280;4926;42.670;23.316;2023-03-23T12:20:29;94354.41;;;22.62;37.17
9774;BME280;4926;42.670;23.316;2023-03-23T12:23:08;94340.22;;;22.46;36.88
9774;BME280;4926;42.670;23.316;2023-03-23T12:25:55;94348.16;;;22.58;36.88
9774;BME280;4926;42.670;23.316;2023-03-23T12:28:37;94345.56;;;22.65;36.94
9774;BME280;4926;42.670;23.316;2023-03-23T12:31:14;94344.81;;;22.68;36.76
9774;BME280;4926;42.670;23.316;2023-03-23T12:33:50;94313.34;;;22.38;36.31
9774;BME280;4926;42.670;23.316;2023-03-23T12:36:37;94349.50;;;20.75;38.67
9774;BME280;4926;42.670;23.316;2023-03-23T12:39:37;94348.44;;;21.78;38.16
9774;BME280;4926;42.670;23.316;2023-03-23T12:42:11;94336.66;;;22.42;36.92
9774;BME280;4926;42.670;23.316;2023-03-23T12:44:49;94328.97;;;22.18;37.42
9774;BME280;4926;42.670;23.316;2023-03-23T12:47:32;94338.50;;;21.86;37.74
9774;BME280;4926;42.670;23.316;2023-03-23T12:50:06;94343.81;;;22.28;37.88
9774;BME280;4926;42.670;23.316;2023-03-23T12:52:39;94341.25;;;21.67;38.15
9774;BME280;4926;42.670;23.316;2023-03-23T12:55:16;94335.19;;;21.96;38.07
9774;BME280;4926;42.670;23.316;2023-03-23T12:57:54;94325.66;;;22.58;37.37
9774;BME280;4926;42.670;23.316;2023-03-23T13:00:28;94317.69;;;23.01;36.31
9774;BME280;4926;42.670;23.316;2023-03-23T13:03:01;94314.03;;;22.57;36.59
9774;BME280;4926;42.670;23.316;2023-03-23T13:05:37;94321.00;;;22.55;36.79
9774;BME280;4926;42.670;23.316;2023-03-23T13:08:12;94319.91;;;22.92;36.81
9774;BME280;4926;42.670;23.316;2023-03-23T13:10:44;94317.19;;;23.25;35.88
9774;BME280;4926;42.670;23.316;2023-03-23T13:13:16;94312.56;;;22.37;36.30
9774;BME280;4926;42.670;23.316;2023-03-23T13:15:53;94323.97;;;21.11;38.62
9774;BME280;4926;42.670;23.316;2023-03-23T13:18:30;94322.59;;;21.39;38.13
9774;BME280;4926;42.670;23.316;2023-03-23T13:21:11;94328.41;;;20.99;38.40
9774;BME280;4926;42.670;23.316;2023-03-23T13:23:41;94318.03;;;21.24;38.78
9774;BME280;4926;42.670;23.316;2023-03-23T13:26:12;94321.75;;;21.16;38.59
9774;BME280;4926;42.670;23.316;2023-03-23T13:28:54;94310.63;;;21.21;38.39
9774;BME280;4926;42.670;23.316;2023-03-23T13:31:23;94332.72;;;20.31;39.61
9774;BME280;4926;42.670;23.316;2023-03-23T13:34:01;94338.75;;;20.09;40.40
9774;BME280;4926;42.670;23.316;2023-03-23T13:36:31;94347.84;;;19.39;41.56
9774;BME280;4926;42.670;23.316;2023-03-23T13:39:01;94340.91;;;18.70;42.18
9774;BME280;4926;42.670;23.316;2023-03-23T13:41:33;94351.03;;;18.73;42.61
9774;BME280;4926;42.670;23.316;2023-03-23T13:44:19;94341.66;;;19.38;41.19